sensor_id;sensor_type;location;lat;lon;timestamp;P1;durP1;ratioP1;P2;durP2;ratioP2
58689;SDS011;44470;53.206;-6.106;2023-05-02T00:00:11;7.50;;;2.40;;
58689;SDS011;44470;53.206;-6.106;2023-05-02T00:02:38;10.02;;;2.88;;
58689;SDS011;44470;53.206;-6.106;2023-05-02T00:05:03;9.10;;;2.15;;
58689;SDS011;44470;53.206;-6.106;2023-05-02T00:07:30;6.90;;;2.15;;
58689;SDS011;44470;53.206;-6.106;2023-05-02T00:09:56;11.35;;;2.25;;
58689;SDS011;44470;53.206;-6.106;2023-05-02T00:12:22;4.70;;;2.03;;
58689;SDS011;44470;53.206;-6.106;2023-05-02T00:14:47;5.78;;;1.90;;
58689;SDS011;44470;53.206;-6.106;2023-05-02T00:17:16;9.40;;;2.17;;
58689;SDS011;44470;53.206;-6.106;2023-05-02T00:19:42;9.23;;;2.17;;
58689;SDS011;44470;53.206;-6.106;2023-05-02T00:22:08;5.78;;;1.92;;
58689;SDS011;44470;53.206;-6.106;2023-05-02T00:24:33;3.17;;;1.92;;
58689;SDS011;44470;53.206;-6.106;2023-05-02T00:26:59;7.97;;;1.95;;
58689;SDS011;44470;53.206;-6.106;2023-05-02T00:29:25;5.82;;;1.63;;
58689;SDS011;44470;53.206;-6.106;2023-05-02T00:31:50;5.80;;;2.03;;
58689;SDS011;44470;53.206;-6.106;2023-05-02T00:34:18;6.90;;;1.88;;
58689;SDS011;44470;53.206;-6.106;2023-05-02T00:36:43;9.13;;;1.90;;
58689;SDS011;44470;53.206;-6.106;2023-05-02T00:39:08;7.03;;;1.92;;
58689;SDS011;44470;53.206;-6.106;2023-05-02T00:41:34;8.32;;;1.70;;
58689;SDS011;44470;53.206;-6.106;2023-05-02T00:44:00;7.15;;;1.63;;
58689;SDS011;44470;53.206;-6.106;2023-05-02T00:46:26;5.32;;;1.70;;
58689;SDS011;44470;53.206;-6.106;2023-05-02T00:49:00;3.00;;;1.92;;
58689;SDS011;44470;53.206;-6.106;2023-05-02T00:51:26;6.90;;;1.60;;
58689;SDS011;44470;53.206;-6.106;2023-05-02T00:53:51;4.10;;;1.63;;
58689;SDS011;44470;53.206;-6.106;2023-05-02T00:56:17;7.75;;;1.80;;
58689;SDS011;44470;53.206;-6.106;2023-05-02T00:58:43;4.00;;;1.63;;
58689;SDS011;44470;53.206;-6.106;2023-05-02T01:04:39;3.35;;;1.40;;
58689;SDS011;44470;53.206;-6.106;2023-05-02T01:12:32;2.83;;;1.60;;
58689;SDS011;44470;53.206;-6.106;2023-05-02T01:15:01;2.67;;;1.10;;
58689;SDS011;44470;53.206;-6.106;2023-05-02T01:17:30;3.08;;;1.20;;
58689;SDS011;44470;53.206;-6.106;2023-05-02T01:20:02;1.63;;;1.52;;
58689;SDS011;44470;53.206;-6.106;2023-05-02T01:22:31;2.03;;;1.30;;
58689;SDS011;44470;53.206;-6.106;2023-05-02T01:27:46;1.60;;;1.50;;
58689;SDS011;44470;53.206;-6.106;2023-05-02T01:30:13;2.70;;;1.30;;
58689;SDS011;44470;53.206;-6.106;2023-05-02T01:32:42;1.92;;;1.30;;
58689;SDS011;44470;53.206;-6.106;2023-05-02T01:35:12;2.67;;;1.20;;
58689;SDS011;44470;53.206;-6.106;2023-05-02T01:37:40;1.60;;;1.40;;
58689;SDS011;44470;53.206;-6.106;2023-05-02T01:40:09;1.63;;;1.13;;
58689;SDS011;44470;53.206;-6.106;2023-05-02T01:42:36;4.03;;;2.03;;
58689;SDS011;44470;53.206;-6.106;2023-05-02T01:45:03;2.25;;;1.25;;
58689;SDS011;44470;53.206;-6.106;2023-05-02T01:47:34;4.30;;;1.35;;
58689;SDS011;44470;53.206;-6.106;2023-05-02T01:50:04;1.50;;;1.40;;
58689;SDS011;44470;53.206;-6.106;2023-05-02T01:52:32;3.05;;;1.45;;
58689;SDS011;44470;53.206;-6.106;2023-05-02T01:54:58;1.80;;;1.23;;
58689;SDS011;44470;53.206;-6.106;2023-05-02T01:57:25;2.90;;;1.10;;
58689;SDS011;44470;53.206;-6.106;2023-05-02T01:59:51;1.63;;;1.20;;
58689;SDS011;44470;53.206;-6.106;2023-05-02T02:02:21;1.58;;;1.23;;
58689;SDS011;44470;53.206;-6.106;2023-05-02T02:04:51;1.65;;;1.20;;
58689;SDS011;44470;53.206;-6.106;2023-05-02T02:07:19;2.42;;;1.40;;
58689;SDS011;44470;53.206;-6.106;2023-05-02T02:09:45;2.47;;;1.50;;
58689;SDS011;44470;53.206;-6.106;2023-05-02T02:12:11;1.90;;;1.20;;
58689;SDS011;44470;53.206;-6.106;2023-05-02T02:14:59;3.20;;;1.40;;
58689;SDS011;44470;53.206;-6.106;2023-05-02T02:18:34;1.80;;;1.10;;
58689;SDS011;44470;53.206;-6.106;2023-05-02T02:20:42;1.05;;;0.70;;
58689;SDS011;44470;53.206;-6.106;2023-05-02T02:23:09;2.35;;;1.55;;
58689;SDS011;44470;53.206;-6.106;2023-05-02T02:25:37;3.33;;;1.67;;
58689;SDS011;44470;53.206;-6.106;2023-05-02T02:28:04;2.45;;;1.48;;
58689;SDS011;44470;53.206;-6.106;2023-05-02T02:30:31;2.08;;;1.10;;
58689;SDS011;44470;53.206;-6.106;2023-05-02T02:32:57;2.05;;;1.23;;
58689;SDS011;44470;53.206;-6.106;2023-05-02T02:35:22;2.45;;;1.15;;
58689;SDS011;44470;53.206;-6.106;2023-05-02T02:37:58;1.35;;;0.93;;
58689;SDS011;44470;53.206;-6.106;2023-05-02T02:40:40;2.33;;;1.35;;
58689;SDS011;44470;53.206;-6.106;2023-05-02T02:43:26;1.80;;;1.08;;
58689;SDS011;44470;53.206;-6.106;2023-05-02T02:51:36;2.13;;;1.30;;
58689;SDS011;44470;53.206;-6.106;2023-05-02T02:54:18;3.30;;;1.27;;
58689;SDS011;44470;53.206;-6.106;2023-05-02T02:56:46;1.52;;;1.20;;
58689;SDS011;44470;53.206;-6.106;2023-05-02T02:59:18;1.60;;;1.30;;
58689;SDS011;44470;53.206;-6.106;2023-05-02T03:01:52;1.92;;;1.08;;
58689;SDS011;44470;53.206;-6.106;2023-05-02T03:04:27;2.03;;;1.30;;
58689;SDS011;44470;53.206;-6.106;2023-05-02T03:06:55;1.65;;;0.98;;
58689;SDS011;44470;53.206;-6.106;2023-05-02T03:09:21;1.90;;;0.98;;
58689;SDS011;44470;53.206;-6.106;2023-05-02T03:11:48;1.10;;;1.10;;
58689;SDS011;44470;53.206;-6.106;2023-05-02T03:14:14;1.20;;;1.20;;
58689;SDS011;44470;53.206;-6.106;2023-05-02T03:16:40;1.30;;;1.17;;
58689;SDS011;44470;53.206;-6.106;2023-05-02T03:19:10;1.45;;;0.95;;
58689;SDS011;44470;53.206;-6.106;2023-05-02T03:21:36;1.27;;;1.00;;
58689;SDS011;44470;53.206;-6.106;2023-05-02T03:24:09;1.05;;;0.93;;
58689;SDS011;44470;53.206;-6.106;2023-05-02T03:26:35;1.50;;;1.40;;
58689;SDS011;44470;53.206;-6.106;2023-05-02T03:29:02;3.03;;;1.25;;
58689;SDS011;44470;53.206;-6.106;2023-05-02T03:31:33;1.23;;;1.20;;
58689;SDS011;44470;53.206;-6.106;2023-05-02T03:33:59;1.83;;;1.10;;
58689;SDS011;44470;53.206;-6.106;2023-05-02T03:36:25;2.03;;;1.20;;
58689;SDS011;44470;53.206;-6.106;2023-05-02T03:38:53;1.98;;;1.00;;
58689;SDS011;44470;53.206;-6.106;2023-05-02T03:41:19;2.47;;;1.20;;
58689;SDS011;44470;53.206;-6.106;2023-05-02T03:43:50;1.45;;;1.10;;
58689;SDS011;44470;53.206;-6.106;2023-05-02T03:46:17;1.25;;;1.00;;
58689;SDS011;44470;53.206;-6.106;2023-05-02T03:48:43;1.40;;;1.15;;
58689;SDS011;44470;53.206;-6.106;2023-05-02T03:51:10;1.92;;;1.10;;
58689;SDS011;44470;53.206;-6.106;2023-05-02T03:53:41;1.75;;;1.17;;
58689;SDS011;44470;53.206;-6.106;2023-05-02T03:56:06;2.20;;;0.80;;
58689;SDS011;44470;53.206;-6.106;2023-05-02T03:58:42;1.27;;;1.17;;
58689;SDS011;44470;53.206;-6.106;2023-05-02T04:01:14;1.17;;;1.08;;
58689;SDS011;44470;53.206;-6.106;2023-05-02T04:03:43;1.52;;;1.10;;
58689;SDS011;44470;53.206;-6.106;2023-05-02T04:06:10;1.20;;;1.08;;
58689;SDS011;44470;53.206;-6.106;2023-05-02T04:08:38;1.02;;;0.95;;
58689;SDS011;44470;53.206;-6.106;2023-05-02T04:11:03;1.90;;;1.13;;
58689;SDS011;44470;53.206;-6.106;2023-05-02T04:13:29;1.08;;;0.80;;
58689;SDS011;44470;53.206;-6.106;2023-05-02T04:15:56;1.40;;;1.30;;
58689;SDS011;44470;53.206;-6.106;2023-05-02T04:18:25;2.50;;;0.93;;
58689;SDS011;44470;53.206;-6.106;2023-05-02T04:20:51;1.58;;;1.13;;
58689;SDS011;44470;53.206;-6.106;2023-05-02T04:23:18;2.70;;;1.25;;
58689;SDS011;44470;53.206;-6.106;2023-05-02T04:25:53;1.33;;;0.80;;
58689;SDS011;44470;53.206;-6.106;2023-05-02T04:28:23;1.58;;;1.30;;
58689;SDS011;44470;53.206;-6.106;2023-05-02T04:30:49;1.55;;;1.00;;
58689;SDS011;44470;53.206;-6.106;2023-05-02T04:33:17;1.70;;;1.17;;
58689;SDS011;44470;53.206;-6.106;2023-05-02T04:35:44;0.88;;;0.88;;
58689;SDS011;44470;53.206;-6.106;2023-05-02T04:38:11;0.88;;;0.85;;
58689;SDS011;44470;53.206;-6.106;2023-05-02T04:40:37;1.45;;;1.13;;
58689;SDS011;44470;53.206;-6.106;2023-05-02T04:43:05;1.00;;;0.90;;
58689;SDS011;44470;53.206;-6.106;2023-05-02T04:45:39;1.60;;;1.00;;
58689;SDS011;44470;53.206;-6.106;2023-05-02T04:48:10;1.98;;;1.20;;
58689;SDS011;44470;53.206;-6.106;2023-05-02T04:50:36;1.50;;;1.15;;
58689;SDS011;44470;53.206;-6.106;2023-05-02T04:53:02;1.25;;;1.13;;
58689;SDS011;44470;53.206;-6.106;2023-05-02T04:55:29;1.52;;;0.95;;
58689;SDS011;44470;53.206;-6.106;2023-05-02T04:57:54;1.42;;;0.85;;
58689;SDS011;44470;53.206;-6.106;2023-05-02T05:00:20;0.80;;;0.80;;
58689;SDS011;44470;53.206;-6.106;2023-05-02T05:02:46;1.08;;;0.90;;
58689;SDS011;44470;53.206;-6.106;2023-05-02T05:05:12;0.90;;;0.88;;
58689;SDS011;44470;53.206;-6.106;2023-05-02T05:07:38;1.48;;;0.82;;
58689;SDS011;44470;53.206;-6.106;2023-05-02T05:10:04;2.30;;;1.33;;
58689;SDS011;44470;53.206;-6.106;2023-05-02T05:12:37;1.30;;;1.00;;
58689;SDS011;44470;53.206;-6.106;2023-05-02T05:15:03;1.65;;;0.90;;
58689;SDS011;44470;53.206;-6.106;2023-05-02T05:17:29;1.10;;;1.00;;
58689;SDS011;44470;53.206;-6.106;2023-05-02T05:19:54;1.08;;;0.90;;
58689;SDS011;44470;53.206;-6.106;2023-05-02T05:22:20;1.95;;;1.10;;
58689;SDS011;44470;53.206;-6.106;2023-05-02T05:24:50;1.02;;;0.90;;
58689;SDS011;44470;53.206;-6.106;2023-05-02T05:27:16;1.52;;;1.08;;
58689;SDS011;44470;53.206;-6.106;2023-05-02T05:29:42;2.67;;;1.00;;
58689;SDS011;44470;53.206;-6.106;2023-05-02T05:32:07;1.42;;;0.90;;
58689;SDS011;44470;53.206;-6.106;2023-05-02T05:34:33;1.38;;;1.17;;
58689;SDS011;44470;53.206;-6.106;2023-05-02T05:36:59;0.85;;;0.82;;
58689;SDS011;44470;53.206;-6.106;2023-05-02T05:39:25;0.70;;;0.70;;
58689;SDS011;44470;53.206;-6.106;2023-05-02T05:41:53;2.65;;;1.25;;
58689;SDS011;44470;53.206;-6.106;2023-05-02T05:44:19;1.10;;;1.00;;
58689;SDS011;44470;53.206;-6.106;2023-05-02T05:46:46;0.80;;;0.80;;
58689;SDS011;44470;53.206;-6.106;2023-05-02T05:49:14;0.75;;;0.73;;
58689;SDS011;44470;53.206;-6.106;2023-05-02T05:51:41;1.80;;;1.17;;
58689;SDS011;44470;53.206;-6.106;2023-05-02T05:54:06;1.48;;;1.30;;
58689;SDS011;44470;53.206;-6.106;2023-05-02T05:56:34;1.65;;;0.90;;
58689;SDS011;44470;53.206;-6.106;2023-05-02T05:59:06;0.90;;;0.90;;
58689;SDS011;44470;53.206;-6.106;2023-05-02T06:01:32;1.13;;;1.00;;
58689;SDS011;44470;53.206;-6.106;2023-05-02T06:03:58;0.73;;;0.73;;
58689;SDS011;44470;53.206;-6.106;2023-05-02T06:06:24;1.88;;;1.40;;
58689;SDS011;44470;53.206;-6.106;2023-05-02T06:08:51;2.05;;;1.23;;
58689;SDS011;44470;53.206;-6.106;2023-05-02T06:11:16;1.23;;;1.13;;
58689;SDS011;44470;53.206;-6.106;2023-05-02T06:13:41;1.50;;;1.20;;
58689;SDS011;44470;53.206;-6.106;2023-05-02T06:16:07;1.40;;;1.00;;
58689;SDS011;44470;53.206;-6.106;2023-05-02T06:18:33;1.38;;;1.10;;
58689;SDS011;44470;53.206;-6.106;2023-05-02T06:21:02;2.28;;;1.20;;
58689;SDS011;44470;53.206;-6.106;2023-05-02T06:23:30;1.58;;;1.00;;
58689;SDS011;44470;53.206;-6.106;2023-05-02T06:26:00;1.85;;;1.00;;
58689;SDS011;44470;53.206;-6.106;2023-05-02T06:28:26;1.10;;;0.80;;
58689;SDS011;44470;53.206;-6.106;2023-05-02T06:30:59;1.15;;;1.00;;
58689;SDS011;44470;53.206;-6.106;2023-05-02T06:33:29;1.92;;;1.05;;
58689;SDS011;44470;53.206;-6.106;2023-05-02T06:35:56;1.38;;;1.00;;
58689;SDS011;44470;53.206;-6.106;2023-05-02T06:38:21;1.38;;;1.00;;
58689;SDS011;44470;53.206;-6.106;2023-05-02T06:40:48;1.30;;;1.10;;
58689;SDS011;44470;53.206;-6.106;2023-05-02T06:43:14;2.92;;;0.90;;
58689;SDS011;44470;53.206;-6.106;2023-05-02T06:45:40;1.17;;;1.08;;
58689;SDS011;44470;53.206;-6.106;2023-05-02T06:48:06;1.45;;;1.35;;
58689;SDS011;44470;53.206;-6.106;2023-05-02T06:50:32;1.00;;;1.00;;
58689;SDS011;44470;53.206;-6.106;2023-05-02T06:52:58;1.10;;;1.08;;
58689;SDS011;44470;53.206;-6.106;2023-05-02T06:55:24;2.78;;;1.17;;
58689;SDS011;44470;53.206;-6.106;2023-05-02T06:57:50;1.90;;;1.27;;
58689;SDS011;44470;53.206;-6.106;2023-05-02T07:00:16;1.55;;;1.05;;
58689;SDS011;44470;53.206;-6.106;2023-05-02T07:02:43;4.00;;;1.30;;
58689;SDS011;44470;53.206;-6.106;2023-05-02T07:05:09;1.40;;;1.30;;
58689;SDS011;44470;53.206;-6.106;2023-05-02T07:07:35;2.30;;;1.35;;
58689;SDS011;44470;53.206;-6.106;2023-05-02T07:10:01;1.17;;;1.13;;
58689;SDS011;44470;53.206;-6.106;2023-05-02T07:12:27;3.83;;;1.50;;
58689;SDS011;44470;53.206;-6.106;2023-05-02T07:14:53;2.33;;;1.45;;
58689;SDS011;44470;53.206;-6.106;2023-05-02T07:17:18;1.40;;;1.25;;
58689;SDS011;44470;53.206;-6.106;2023-05-02T07:19:44;2.28;;;1.40;;
58689;SDS011;44470;53.206;-6.106;2023-05-02T07:22:09;2.15;;;1.30;;
58689;SDS011;44470;53.206;-6.106;2023-05-02T07:24:38;1.40;;;1.30;;
58689;SDS011;44470;53.206;-6.106;2023-05-02T07:27:04;1.58;;;1.33;;
58689;SDS011;44470;53.206;-6.106;2023-05-02T07:29:30;1.20;;;1.15;;
58689;SDS011;44470;53.206;-6.106;2023-05-02T07:31:55;1.50;;;1.40;;
58689;SDS011;44470;53.206;-6.106;2023-05-02T07:34:21;3.05;;;1.40;;
58689;SDS011;44470;53.206;-6.106;2023-05-02T07:36:46;1.80;;;1.50;;
58689;SDS011;44470;53.206;-6.106;2023-05-02T07:39:12;2.10;;;1.67;;
58689;SDS011;44470;53.206;-6.106;2023-05-02T07:41:37;4.28;;;1.70;;
58689;SDS011;44470;53.206;-6.106;2023-05-02T07:44:03;3.88;;;1.60;;
58689;SDS011;44470;53.206;-6.106;2023-05-02T07:46:28;4.65;;;1.77;;
58689;SDS011;44470;53.206;-6.106;2023-05-02T07:48:54;3.83;;;1.60;;
58689;SDS011;44470;53.206;-6.106;2023-05-02T07:51:20;9.55;;;2.03;;
58689;SDS011;44470;53.206;-6.106;2023-05-02T07:53:46;3.58;;;1.80;;
58689;SDS011;44470;53.206;-6.106;2023-05-02T07:56:14;4.75;;;1.90;;
58689;SDS011;44470;53.206;-6.106;2023-05-02T07:58:39;2.10;;;1.88;;
58689;SDS011;44470;53.206;-6.106;2023-05-02T08:01:05;6.13;;;2.10;;
58689;SDS011;44470;53.206;-6.106;2023-05-02T08:03:30;4.13;;;1.90;;
58689;SDS011;44470;53.206;-6.106;2023-05-02T08:05:56;3.47;;;1.95;;
58689;SDS011;44470;53.206;-6.106;2023-05-02T08:08:22;5.28;;;1.92;;
58689;SDS011;44470;53.206;-6.106;2023-05-02T08:10:47;5.85;;;2.25;;
58689;SDS011;44470;53.206;-6.106;2023-05-02T08:13:15;6.80;;;1.92;;
58689;SDS011;44470;53.206;-6.106;2023-05-02T08:15:41;4.72;;;1.77;;
58689;SDS011;44470;53.206;-6.106;2023-05-02T08:18:07;5.40;;;2.10;;
58689;SDS011;44470;53.206;-6.106;2023-05-02T08:20:32;2.78;;;1.80;;
58689;SDS011;44470;53.206;-6.106;2023-05-02T08:22:58;4.55;;;1.98;;
58689;SDS011;44470;53.206;-6.106;2023-05-02T08:25:23;3.42;;;1.70;;
58689;SDS011;44470;53.206;-6.106;2023-05-02T08:27:49;4.10;;;1.80;;
58689;SDS011;44470;53.206;-6.106;2023-05-02T08:30:14;4.65;;;1.98;;
58689;SDS011;44470;53.206;-6.106;2023-05-02T08:32:40;3.55;;;1.63;;
58689;SDS011;44470;53.206;-6.106;2023-05-02T08:35:05;1.67;;;1.58;;
58689;SDS011;44470;53.206;-6.106;2023-05-02T08:37:31;3.30;;;1.88;;
58689;SDS011;44470;53.206;-6.106;2023-05-02T08:39:56;2.88;;;1.80;;
58689;SDS011;44470;53.206;-6.106;2023-05-02T08:42:22;5.03;;;1.85;;
58689;SDS011;44470;53.206;-6.106;2023-05-02T08:44:48;3.30;;;1.55;;
58689;SDS011;44470;53.206;-6.106;2023-05-02T08:47:14;4.57;;;1.85;;
58689;SDS011;44470;53.206;-6.106;2023-05-02T08:49:41;2.00;;;1.85;;
58689;SDS011;44470;53.206;-6.106;2023-05-02T08:52:07;5.22;;;2.20;;
58689;SDS011;44470;53.206;-6.106;2023-05-02T08:54:36;5.25;;;2.20;;
58689;SDS011;44470;53.206;-6.106;2023-05-02T08:57:02;2.40;;;1.95;;
58689;SDS011;44470;53.206;-6.106;2023-05-02T08:59:29;5.28;;;1.65;;
58689;SDS011;44470;53.206;-6.106;2023-05-02T09:01:57;2.53;;;2.20;;
58689;SDS011;44470;53.206;-6.106;2023-05-02T09:04:26;5.20;;;2.03;;
58689;SDS011;44470;53.206;-6.106;2023-05-02T09:06:56;4.40;;;1.75;;
58689;SDS011;44470;53.206;-6.106;2023-05-02T09:09:22;3.38;;;1.95;;
58689;SDS011;44470;53.206;-6.106;2023-05-02T09:11:49;2.15;;;1.75;;
58689;SDS011;44470;53.206;-6.106;2023-05-02T09:14:16;2.25;;;1.83;;
58689;SDS011;44470;53.206;-6.106;2023-05-02T09:16:42;1.95;;;1.75;;
58689;SDS011;44470;53.206;-6.106;2023-05-02T09:19:08;1.45;;;1.35;;
58689;SDS011;44470;53.206;-6.106;2023-05-02T09:21:34;2.72;;;1.90;;
58689;SDS011;44470;53.206;-6.106;2023-05-02T09:24:02;1.95;;;1.80;;
58689;SDS011;44470;53.206;-6.106;2023-05-02T09:26:55;3.67;;;2.05;;
58689;SDS011;44470;53.206;-6.106;2023-05-02T09:29:22;2.65;;;2.00;;
58689;SDS011;44470;53.206;-6.106;2023-05-02T09:31:48;2.35;;;1.42;;
58689;SDS011;44470;53.206;-6.106;2023-05-02T09:34:17;2.85;;;2.35;;
58689;SDS011;44470;53.206;-6.106;2023-05-02T09:36:45;4.25;;;2.03;;
58689;SDS011;44470;53.206;-6.106;2023-05-02T09:39:13;1.88;;;1.65;;
58689;SDS011;44470;53.206;-6.106;2023-05-02T09:41:40;5.00;;;2.13;;
58689;SDS011;44470;53.206;-6.106;2023-05-02T09:44:11;5.07;;;1.95;;
58689;SDS011;44470;53.206;-6.106;2023-05-02T09:46:38;2.53;;;2.00;;
58689;SDS011;44470;53.206;-6.106;2023-05-02T09:49:05;5.20;;;2.08;;
58689;SDS011;44470;53.206;-6.106;2023-05-02T09:51:31;2.90;;;2.10;;
58689;SDS011;44470;53.206;-6.106;2023-05-02T09:53:57;3.83;;;2.75;;
58689;SDS011;44470;53.206;-6.106;2023-05-02T09:56:22;2.30;;;2.03;;
58689;SDS011;44470;53.206;-6.106;2023-05-02T09:58:48;4.10;;;2.10;;
58689;SDS011;44470;53.206;-6.106;2023-05-02T10:01:17;5.95;;;2.08;;
58689;SDS011;44470;53.206;-6.106;2023-05-02T10:03:46;2.17;;;1.85;;
58689;SDS011;44470;53.206;-6.106;2023-05-02T10:06:12;2.63;;;2.28;;
58689;SDS011;44470;53.206;-6.106;2023-05-02T10:08:39;2.58;;;2.22;;
58689;SDS011;44470;53.206;-6.106;2023-05-02T10:11:06;4.47;;;2.28;;
58689;SDS011;44470;53.206;-6.106;2023-05-02T10:13:33;2.78;;;1.80;;
58689;SDS011;44470;53.206;-6.106;2023-05-02T10:16:04;2.17;;;2.05;;
58689;SDS011;44470;53.206;-6.106;2023-05-02T10:18:39;4.80;;;2.28;;
58689;SDS011;44470;53.206;-6.106;2023-05-02T10:21:28;4.03;;;2.38;;
58689;SDS011;44470;53.206;-6.106;2023-05-02T10:23:55;5.65;;;2.50;;
58689;SDS011;44470;53.206;-6.106;2023-05-02T10:26:21;3.05;;;2.47;;
58689;SDS011;44470;53.206;-6.106;2023-05-02T10:28:48;2.75;;;2.45;;
58689;SDS011;44470;53.206;-6.106;2023-05-02T10:31:14;5.22;;;2.72;;
58689;SDS011;44470;53.206;-6.106;2023-05-02T10:33:50;2.50;;;2.30;;
58689;SDS011;44470;53.206;-6.106;2023-05-02T10:36:19;7.35;;;2.63;;
58689;SDS011;44470;53.206;-6.106;2023-05-02T10:41:13;5.70;;;2.67;;
58689;SDS011;44470;53.206;-6.106;2023-05-02T10:43:46;7.80;;;2.78;;
58689;SDS011;44470;53.206;-6.106;2023-05-02T10:49:05;10.23;;;3.03;;
58689;SDS011;44470;53.206;-6.106;2023-05-02T10:51:34;15.70;;;3.10;;
58689;SDS011;44470;53.206;-6.106;2023-05-02T10:59:42;6.43;;;3.22;;
58689;SDS011;44470;53.206;-6.106;2023-05-02T11:05:06;22.80;;;3.50;;
58689;SDS011;44470;53.206;-6.106;2023-05-02T11:07:33;22.02;;;4.38;;
58689;SDS011;44470;53.206;-6.106;2023-05-02T11:12:50;23.33;;;4.07;;
58689;SDS011;44470;53.206;-6.106;2023-05-02T11:15:53;14.60;;;3.20;;
58689;SDS011;44470;53.206;-6.106;2023-05-02T11:18:05;15.30;;;3.17;;
58689;SDS011;44470;53.206;-6.106;2023-05-02T11:20:34;19.77;;;3.40;;
58689;SDS011;44470;53.206;-6.106;2023-05-02T11:25:46;9.93;;;3.10;;
58689;SDS011;44470;53.206;-6.106;2023-05-02T11:31:06;11.05;;;3.15;;
58689;SDS011;44470;53.206;-6.106;2023-05-02T11:33:34;12.63;;;3.45;;
58689;SDS011;44470;53.206;-6.106;2023-05-02T11:35:59;6.95;;;3.22;;
58689;SDS011;44470;53.206;-6.106;2023-05-02T11:38:26;10.02;;;3.20;;
58689;SDS011;44470;53.206;-6.106;2023-05-02T11:41:00;10.43;;;2.70;;
58689;SDS011;44470;53.206;-6.106;2023-05-02T11:43:28;10.95;;;3.13;;
58689;SDS011;44470;53.206;-6.106;2023-05-02T11:45:54;11.50;;;2.92;;
58689;SDS011;44470;53.206;-6.106;2023-05-02T11:48:21;9.93;;;2.90;;
58689;SDS011;44470;53.206;-6.106;2023-05-02T11:50:49;13.77;;;3.40;;
58689;SDS011;44470;53.206;-6.106;2023-05-02T11:53:20;15.55;;;3.80;;
58689;SDS011;44470;53.206;-6.106;2023-05-02T11:55:48;14.07;;;3.10;;
58689;SDS011;44470;53.206;-6.106;2023-05-02T11:58:15;17.13;;;3.40;;
58689;SDS011;44470;53.206;-6.106;2023-05-02T12:00:43;21.77;;;4.30;;
58689;SDS011;44470;53.206;-6.106;2023-05-02T12:05:46;20.52;;;4.57;;
58689;SDS011;44470;53.206;-6.106;2023-05-02T12:08:18;92.03;;;7.75;;
58689;SDS011;44470;53.206;-6.106;2023-05-02T12:10:52;67.47;;;7.03;;
58689;SDS011;44470;53.206;-6.106;2023-05-02T12:13:21;36.35;;;4.47;;
58689;SDS011;44470;53.206;-6.106;2023-05-02T12:15:49;45.75;;;4.78;;
58689;SDS011;44470;53.206;-6.106;2023-05-02T12:18:16;30.40;;;4.18;;
58689;SDS011;44470;53.206;-6.106;2023-05-02T12:20:42;29.88;;;4.20;;
58689;SDS011;44470;53.206;-6.106;2023-05-02T12:23:07;21.17;;;3.85;;
58689;SDS011;44470;53.206;-6.106;2023-05-02T12:25:39;19.75;;;3.53;;
58689;SDS011;44470;53.206;-6.106;2023-05-02T12:31:27;22.20;;;3.00;;
58689;SDS011;44470;53.206;-6.106;2023-05-02T12:33:55;13.55;;;2.83;;
58689;SDS011;44470;53.206;-6.106;2023-05-02T12:36:21;17.42;;;2.60;;
58689;SDS011;44470;53.206;-6.106;2023-05-02T12:38:48;9.80;;;2.17;;
58689;SDS011;44470;53.206;-6.106;2023-05-02T12:41:16;9.77;;;2.90;;
58689;SDS011;44470;53.206;-6.106;2023-05-02T12:43:44;8.52;;;2.53;;
58689;SDS011;44470;53.206;-6.106;2023-05-02T12:46:11;10.07;;;2.47;;
58689;SDS011;44470;53.206;-6.106;2023-05-02T12:48:36;10.35;;;2.50;;
58689;SDS011;44470;53.206;-6.106;2023-05-02T12:51:02;11.52;;;2.50;;
58689;SDS011;44470;53.206;-6.106;2023-05-02T12:53:37;7.35;;;2.28;;
58689;SDS011;44470;53.206;-6.106;2023-05-02T13:01:07;11.55;;;3.00;;
58689;SDS011;44470;53.206;-6.106;2023-05-02T13:03:33;11.05;;;3.25;;
58689;SDS011;44470;53.206;-6.106;2023-05-02T13:05:58;25.83;;;4.03;;
58689;SDS011;44470;53.206;-6.106;2023-05-02T13:08:24;28.70;;;3.90;;
58689;SDS011;44470;53.206;-6.106;2023-05-02T13:10:49;33.17;;;4.00;;
58689;SDS011;44470;53.206;-6.106;2023-05-02T13:13:15;30.13;;;3.78;;
58689;SDS011;44470;53.206;-6.106;2023-05-02T13:15:41;27.67;;;5.40;;
58689;SDS011;44470;53.206;-6.106;2023-05-02T13:18:07;25.23;;;3.45;;
58689;SDS011;44470;53.206;-6.106;2023-05-02T13:20:32;22.83;;;3.78;;
58689;SDS011;44470;53.206;-6.106;2023-05-02T13:22:58;25.25;;;3.28;;
58689;SDS011;44470;53.206;-6.106;2023-05-02T13:25:23;23.50;;;3.17;;
58689;SDS011;44470;53.206;-6.106;2023-05-02T13:27:50;21.75;;;3.08;;
58689;SDS011;44470;53.206;-6.106;2023-05-02T13:30:15;23.15;;;3.80;;
58689;SDS011;44470;53.206;-6.106;2023-05-02T13:32:41;24.35;;;3.83;;
58689;SDS011;44470;53.206;-6.106;2023-05-02T13:35:06;21.70;;;3.05;;
58689;SDS011;44470;53.206;-6.106;2023-05-02T13:37:33;16.52;;;2.63;;
58689;SDS011;44470;53.206;-6.106;2023-05-02T13:39:58;21.08;;;3.00;;
58689;SDS011;44470;53.206;-6.106;2023-05-02T13:42:24;17.92;;;2.75;;
58689;SDS011;44470;53.206;-6.106;2023-05-02T13:44:50;17.42;;;2.72;;
58689;SDS011;44470;53.206;-6.106;2023-05-02T13:47:15;15.15;;;3.03;;
58689;SDS011;44470;53.206;-6.106;2023-05-02T13:49:41;21.65;;;3.20;;
58689;SDS011;44470;53.206;-6.106;2023-05-02T13:52:06;23.20;;;2.95;;
58689;SDS011;44470;53.206;-6.106;2023-05-02T13:54:32;19.83;;;2.95;;
58689;SDS011;44470;53.206;-6.106;2023-05-02T13:56:57;17.42;;;3.28;;
58689;SDS011;44470;53.206;-6.106;2023-05-02T13:59:22;22.17;;;3.35;;
58689;SDS011;44470;53.206;-6.106;2023-05-02T14:01:48;19.95;;;3.40;;
58689;SDS011;44470;53.206;-6.106;2023-05-02T14:04:13;24.35;;;3.00;;
58689;SDS011;44470;53.206;-6.106;2023-05-02T14:06:39;20.70;;;3.28;;
58689;SDS011;44470;53.206;-6.106;2023-05-02T14:09:04;20.42;;;2.33;;
58689;SDS011;44470;53.206;-6.106;2023-05-02T14:11:31;20.35;;;2.70;;
58689;SDS011;44470;53.206;-6.106;2023-05-02T14:13:56;14.18;;;2.60;;
58689;SDS011;44470;53.206;-6.106;2023-05-02T14:16:23;17.05;;;2.53;;
58689;SDS011;44470;53.206;-6.106;2023-05-02T14:18:49;14.05;;;3.17;;
58689;SDS011;44470;53.206;-6.106;2023-05-02T14:21:15;24.45;;;2.80;;
58689;SDS011;44470;53.206;-6.106;2023-05-02T14:23:41;18.05;;;2.45;;
58689;SDS011;44470;53.206;-6.106;2023-05-02T14:26:07;16.95;;;2.83;;
58689;SDS011;44470;53.206;-6.106;2023-05-02T14:28:33;18.85;;;2.50;;
58689;SDS011;44470;53.206;-6.106;2023-05-02T14:30:58;16.33;;;2.30;;
58689;SDS011;44470;53.206;-6.106;2023-05-02T14:33:24;17.20;;;2.40;;
58689;SDS011;44470;53.206;-6.106;2023-05-02T14:35:49;14.95;;;2.38;;
58689;SDS011;44470;53.206;-6.106;2023-05-02T14:38:15;16.92;;;2.70;;
58689;SDS011;44470;53.206;-6.106;2023-05-02T14:40:40;14.43;;;2.38;;
58689;SDS011;44470;53.206;-6.106;2023-05-02T14:43:06;14.95;;;2.83;;
58689;SDS011;44470;53.206;-6.106;2023-05-02T14:45:32;22.35;;;3.50;;
58689;SDS011;44470;53.206;-6.106;2023-05-02T14:47:58;19.80;;;2.88;;
58689;SDS011;44470;53.206;-6.106;2023-05-02T14:50:23;14.35;;;2.35;;
58689;SDS011;44470;53.206;-6.106;2023-05-02T14:52:49;16.95;;;2.90;;
58689;SDS011;44470;53.206;-6.106;2023-05-02T14:58:33;12.40;;;2.10;;
58689;SDS011;44470;53.206;-6.106;2023-05-02T15:00:59;20.77;;;3.08;;
58689;SDS011;44470;53.206;-6.106;2023-05-02T15:03:24;16.92;;;2.83;;
58689;SDS011;44470;53.206;-6.106;2023-05-02T15:05:50;17.70;;;2.47;;
58689;SDS011;44470;53.206;-6.106;2023-05-02T15:08:16;17.45;;;2.83;;
58689;SDS011;44470;53.206;-6.106;2023-05-02T15:10:41;18.05;;;2.95;;
58689;SDS011;44470;53.206;-6.106;2023-05-02T15:13:07;22.30;;;3.45;;
58689;SDS011;44470;53.206;-6.106;2023-05-02T15:15:32;17.10;;;3.08;;
58689;SDS011;44470;53.206;-6.106;2023-05-02T15:17:58;19.50;;;3.33;;
58689;SDS011;44470;53.206;-6.106;2023-05-02T15:20:24;11.63;;;2.97;;
58689;SDS011;44470;53.206;-6.106;2023-05-02T15:22:49;17.17;;;3.00;;
58689;SDS011;44470;53.206;-6.106;2023-05-02T15:25:15;13.15;;;2.50;;